Flight Information

DEPARTURE
RAMONA, CA
Elevation:
1394
Runways:
H1 - 340x66 - ASPH-CONC
9/27 - 5001x150 - ASPH-G
ATIS:
132.025
Ground:
121.65
Tower:
119.875
DESTINATION
,
Elevation:
TPA:
1000 (est.)


6737.8 NM75° True-13° Var61° HDG

Flight Plan:
(click to file on line)

1. Type
2. Aircraft Identification
3. Aircraft Type / Special Equipment
4. True Airspeed
kts
5. Departure Airport
(ICAO code)
6. Arriving Airport
(ICAO code)
7. Cruising Altitude
ft
8. Alternate Airport
(ICAO code)
9. Route of Flight
10. Remarks


00:00:00 Departure ATIS: Destination ATIS:

Clearance Limit:
Route:
Altitude: Expect in minutes
Frequency:
Transponder: (7500 Hijack / 7600 Lost Comms / 7700 Emergency)


KRNM 101653Z 00000KT 10SM CLR 31/08 A3001 RMK AO2 SLP144 T03110078
Time: 2020-07-10T16:53:00Z
1594400376
Winds: calm
Visibility: 10.0 sm
Clouds (AGL): CLR
Temperature: 31.1 C
Dew Point: 7.8 C
Pressure: 30.008858 in Hgbr


Notes:

Data extracted from FAA Digital Chart Supplement. Effective: 0901Z Thursday, May 21, 2020 to 0901Z Thursday, Jul 16, 2020
Current ATIS data is provided courtisy of PilotEdge.